Flight Track Log - Related Links

Times and Time Zones

All times are in EDT time to prevent confusion due to time zone crossing. See the N923SA flight status page for this flight to view local times or setup timezone preferences in your user account.

Time Position Orientation Groundspeed Altitude Reporting Facility
EDT Latitude Longitude Course Direction KTS MPH feet Rate Location/Type
Wed 03:27:28 PM 29.5536 -81.5222 351° North 96 110 3,200  Level Jacksonville Center
Wed 03:27:55 PM 29.5661 -81.5244 351° North 96 110 3,000 -237 Descending Jacksonville Center
Wed 03:28:44 PM 29.5869 -81.5264 355° North 90 104 2,900  Descending Jacksonville Center
Wed 03:29:45 PM 29.6119 -81.5286 356° North 96 110 3,000 49 Climbing Jacksonville Center
Wed 03:30:46 PM 29.6331 -81.5475 322° Northwest 91 105 3,000  Level Jacksonville Center
Wed 03:31:47 PM 29.6542 -81.5661 323° Northwest 87 100 3,000  Level Jacksonville Center
Wed 03:32:48 PM 29.6772 -81.5778 336° Northwest 91 105 3,000  Level Jacksonville Center
Wed 03:33:49 PM 29.7003 -81.5919 332° Northwest 91 105 3,000 -49 Level Jacksonville Center
Wed 03:34:50 PM 29.7236 -81.6083 329° Northwest 94 108 2,900  Descending Jacksonville Center
Wed 03:35:51 PM 29.7486 -81.6200 338° Northwest 95 109 3,000  Climbing Jacksonville Center
Wed 03:36:52 PM 29.7717 -81.6364 328° Northwest 105 121 2,900 -49 Descending Jacksonville Center
Wed 03:37:53 PM 29.7928 -81.6553 322° Northwest 95 109 2,900  Level Jacksonville Center
Wed 03:38:54 PM 29.8139 -81.6742 322° Northwest 93 107 2,900 49 Level Jacksonville Center
Wed 03:39:55 PM 29.8328 -81.6931 319° Northwest 90 104 3,000 49 Climbing Jacksonville Center
Wed 03:40:56 PM 29.8539 -81.7119 322° Northwest 95 109 3,000  Level Jacksonville Center
Wed 03:41:57 PM 29.8769 -81.7283 328° Northwest 99 114 3,000  Level Jacksonville Center
Wed 03:42:58 PM 29.9042 -81.7353 348° North 103 119 3,000 -49 Level Jacksonville Center
Wed 03:43:59 PM 29.9336 -81.7494 337° Northwest 98 113 2,900  Descending Jacksonville Center
Wed 03:45:00 PM 29.9567 -81.7561 346° North 93 107 3,000 49 Climbing Jacksonville Center
Wed 03:46:01 PM 29.9817 -81.7608 351° North 94 108 3,000  Level Jacksonville Center
Wed 03:47:02 PM 30.0089 -81.7653 352° North 92 106 3,000 49 Level Jacksonville Center
Wed 03:48:03 PM 30.0339 -81.7672 356° North 93 107 3,100  Climbing Jacksonville Center
Wed 03:49:04 PM 30.0592 -81.7767 342° North 86 99 3,000 -295 Descending Jacksonville Center
Wed 03:50:05 PM 30.0803 -81.7933 326° Northwest 91 105 2,500 -541 Descending Jacksonville Center
Wed 03:51:06 PM 30.0992 -81.8144 316° Northwest 92 106 1,900 -492 Descending Jacksonville Center
Wed 03:52:07 PM 30.1242 -81.8214 346° North 101 116 1,500 -344 Descending Jacksonville Center
Wed 03:53:08 PM 30.1494 -81.8356 334° Northwest 93 107 1,200 -295 Descending Jacksonville Center
Wed 03:55:00 PM 30.1967 -81.8574 338° Northwest  Level FlightAware Approximate
Wed 04:02:00 PM 30.2167 -81.8667 333° Northwest  Level FlightAware Approximate
Wed 04:03:00 PM 30.2188 -81.8772 333° Northwest  Level Estimated
Wed 04:04:00 PM 30.2188 -81.8772 333° Northwest  Level Estimated
Wed 04:05:00 PM 30.2188 -81.8772 333° Northwest  Level Estimated

Login

Don't have an account? Register now (free) for customized features, flight alerts, and more!